Time;durP1;ratioP1;P1;durP2;ratioP2;P2;SDS_P1;SDS_P2;PMS_P1;PMS_P2;Temp;Humidity;BMP_temperature;BMP_pressure;BME280_temperature;BME280_humidity;BME280_pressure;Samples;Min_cycle;Max_cycle;Signal;HPM_P1;HPM_P2
2021/12/16 00:09:00;;;;;;;;;;;8.70;99.90;;;;;;4996938;28;19925;-78
2021/12/16 00:30:52;;;;;;;;;;;8.80;99.90;;;;;;4997003;28;19964;-78
2021/12/16 00:33:17;;;;;;;;;;;8.70;99.90;;;;;;4996880;28;19925;-78
2021/12/16 00:35:45;;;;;;;;;;;6.30;99.90;;;;;;4995900;28;19929;-78
2021/12/16 00:38:11;;;;;;;;;;;8.70;99.90;;;;;;4996800;28;20024;-78
2021/12/16 00:40:42;;;;;;;;;;;10.40;99.90;;;;;;4996144;28;20016;-78
2021/12/16 00:43:16;;;;;;;;;;;8.70;87.40;;;;;;5013247;28;19956;-78
2021/12/16 00:46:09;;;;;;;;;;;8.80;99.90;;;;;;5013899;28;19926;-78
2021/12/16 00:49:00;;;;;;;;;;;11.40;86.60;;;;;;5013164;28;19929;-81
2021/12/16 00:54:11;;;;;;;;;;;9.00;90.60;;;;;;5014200;28;20040;-78
2021/12/16 00:56:37;;;;;;;;;;;8.70;58.20;;;;;;5013811;28;19948;-79
2021/12/16 00:59:05;;;;;;;;;;;8.80;42.80;;;;;;5013057;28;19929;-80
2021/12/16 01:01:42;;;;;;;;;;;8.80;19.80;;;;;;5013587;28;19925;-78
2021/12/16 01:05:30;;;;;;;;;;;8.80;6.30;;;;;;4996740;28;19933;-78
2021/12/16 01:07:23;;;;;;;;;;;9.70;5.00;;;;;;4999803;28;19999;-79
2021/12/16 01:34:34;;;;;;;;;;;10.40;30.10;;;;;;5013575;28;19925;-78
2021/12/16 01:50:12;;;;;;;;;;;8.60;99.90;;;;;;4995160;28;20009;-78
2021/12/16 01:55:36;;;;;;;;;;;8.90;99.90;;;;;;4995771;28;20020;-78
2021/12/16 01:58:09;;;;;;;;;;;8.70;99.90;;;;;;4994556;28;20350;-79
2021/12/16 02:01:10;;;;;;;;;;;9.00;99.90;;;;;;5012480;28;20075;-80
2021/12/16 02:03:44;;;;;;;;;;;8.70;99.90;;;;;;5010934;28;20027;-79
2021/12/16 02:08:51;;;;;;;;;;;10.60;32.30;;;;;;4995160;28;20023;-78
2021/12/16 02:35:46;;;;;;;;;;;9.00;1.00;;;;;;4993801;28;19948;-78
2021/12/16 02:38:15;;;;;;;;;;;8.60;1.00;;;;;;5011832;28;19925;-78
2021/12/16 02:40:41;;;;;;;;;;;9.10;1.00;;;;;;5011824;28;19926;-78
2021/12/16 02:50:55;;;;;;;;;;;8.70;1.00;;;;;;4993351;28;19945;-78
2021/12/16 02:53:21;;;;;;;;;;;8.60;1.00;;;;;;5012129;28;20526;-78
2021/12/16 02:55:46;;;;;;;;;;;10.00;1.00;;;;;;5011504;28;20003;-78
2021/12/16 02:58:13;;;;;;;;;;;9.40;1.00;;;;;;5011783;28;20375;-78
2021/12/16 03:00:41;;;;;;;;;;;9.00;1.00;;;;;;5011506;28;20386;-81
2021/12/16 03:03:07;;;;;;;;;;;10.40;1.00;;;;;;5011929;28;19929;-78
2021/12/16 03:05:33;;;;;;;;;;;9.20;1.00;;;;;;4994225;28;19933;-79
2021/12/16 03:07:58;;;;;;;;;;;9.50;1.00;;;;;;5011324;28;20443;-78
2021/12/16 03:17:55;;;;;;;;;;;8.70;99.90;;;;;;5011411;28;19925;-76
2021/12/16 03:20:40;;;;;;;;;;;10.20;1.00;;;;;;5011412;28;20017;-78
2021/12/16 03:25:50;;;;;;;;;;;8.70;99.90;;;;;;5011594;28;19933;-78
2021/12/16 03:38:46;;;;;;;;;;;9.20;1.00;;;;;;4996388;28;19925;-81
2021/12/16 03:41:12;;;;;;;;;;;8.40;1.00;;;;;;5011353;28;19925;-78
2021/12/16 03:43:38;;;;;;;;;;;8.30;99.90;;;;;;4994500;28;19925;-78
2021/12/16 03:48:44;;;;;;;;;;;8.30;99.90;;;;;;5009735;28;19926;-78
2021/12/16 03:51:15;;;;;;;;;;;8.20;99.90;;;;;;4993627;28;19926;-79
2021/12/16 03:53:43;;;;;;;;;;;8.10;99.90;;;;;;4994305;28;19925;-78
2021/12/16 03:56:09;;;;;;;;;;;10.90;99.90;;;;;;5011022;28;19934;-79
2021/12/16 03:58:35;;;;;;;;;;;9.20;99.90;;;;;;5011435;28;19926;-79
2021/12/16 04:01:02;;;;;;;;;;;8.00;99.90;;;;;;5010870;28;19967;-79
2021/12/16 04:03:27;;;;;;;;;;;8.00;99.90;;;;;;4994284;28;19937;-78
2021/12/16 04:05:53;;;;;;;;;;;10.00;99.90;;;;;;4991319;28;19929;-78
2021/12/16 04:08:19;;;;;;;;;;;9.80;99.90;;;;;;4993918;28;19952;-79
2021/12/16 04:10:53;;;;;;;;;;;7.80;99.90;;;;;;5013179;28;20357;-78
2021/12/16 04:13:19;;;;;;;;;;;7.80;99.90;;;;;;4981356;28;19925;-78
2021/12/16 04:15:46;;;;;;;;;;;7.80;99.90;;;;;;4997519;28;19926;-78
2021/12/16 04:18:12;;;;;;;;;;;8.00;99.90;;;;;;5014621;28;19929;-78
2021/12/16 04:20:37;;;;;;;;;;;7.60;99.90;;;;;;5014543;28;19930;-78
2021/12/16 04:23:05;;;;;;;;;;;8.40;99.90;;;;;;5014624;28;19948;-79
2021/12/16 04:25:33;;;;;;;;;;;8.50;99.90;;;;;;4997148;28;20321;-79
2021/12/16 04:28:00;;;;;;;;;;;9.80;99.90;;;;;;5014292;28;19996;-78
2021/12/16 04:30:27;;;;;;;;;;;7.60;99.90;;;;;;4997116;28;20347;-78
2021/12/16 04:32:53;;;;;;;;;;;7.60;99.90;;;;;;5014278;28;20386;-78
2021/12/16 04:35:19;;;;;;;;;;;9.40;99.90;;;;;;5014341;28;19926;-78
2021/12/16 04:37:45;;;;;;;;;;;9.50;99.90;;;;;;5013597;28;19937;-78
2021/12/16 04:40:11;;;;;;;;;;;8.40;99.90;;;;;;5013934;28;19926;-78
2021/12/16 04:42:37;;;;;;;;;;;7.60;99.90;;;;;;4996874;28;20501;-78
2021/12/16 04:45:04;;;;;;;;;;;7.60;99.90;;;;;;4996403;28;19925;-78
2021/12/16 04:47:30;;;;;;;;;;;7.80;99.90;;;;;;5014497;28;20293;-78
2021/12/16 04:49:56;;;;;;;;;;;7.90;99.90;;;;;;4994929;28;19925;-79
2021/12/16 04:52:21;;;;;;;;;;;9.40;99.90;;;;;;5013849;28;19926;-78
2021/12/16 04:54:47;;;;;;;;;;;8.90;99.90;;;;;;5014305;28;19945;-78
2021/12/16 04:57:13;;;;;;;;;;;7.80;99.90;;;;;;5011459;28;20034;-78
2021/12/16 04:59:39;;;;;;;;;;;7.80;99.90;;;;;;4996415;28;20316;-78
2021/12/16 05:02:10;;;;;;;;;;;8.00;99.90;;;;;;4980341;28;19925;-78
2021/12/16 05:04:36;;;;;;;;;;;7.80;99.90;;;;;;5014080;28;19925;-79
2021/12/16 05:07:02;;;;;;;;;;;8.30;99.90;;;;;;5012958;28;20020;-78
2021/12/16 05:10:14;;;;;;;;;;;7.60;99.90;;;;;;4996115;28;19929;-78
2021/12/16 05:12:21;;;;;;;;;;;8.20;99.90;;;;;;4988812;28;19925;-78
2021/12/16 05:14:47;;;;;;;;;;;7.70;99.90;;;;;;5013987;28;19925;-78
2021/12/16 05:19:52;;;;;;;;;;;9.20;99.90;;;;;;4995826;28;19973;-81
2021/12/16 05:25:03;;;;;;;;;;;8.20;99.90;;;;;;4998479;28;19925;-78
2021/12/16 05:27:29;;;;;;;;;;;7.40;99.90;;;;;;4996011;28;20008;-79
2021/12/16 05:29:55;;;;;;;;;;;7.80;99.90;;;;;;5012776;28;20138;-78
2021/12/16 05:32:20;;;;;;;;;;;9.80;99.90;;;;;;5013231;28;20238;-78
2021/12/16 05:34:46;;;;;;;;;;;9.10;99.90;;;;;;5013098;28;20400;-79
2021/12/16 05:37:12;;;;;;;;;;;8.80;99.90;;;;;;5011090;28;19921;-78
2021/12/16 05:39:37;;;;;;;;;;;7.70;99.90;;;;;;5012785;28;19933;-78
2021/12/16 05:42:03;;;;;;;;;;;8.10;99.90;;;;;;4995489;28;19926;-79
2021/12/16 05:44:29;;;;;;;;;;;7.80;99.90;;;;;;4996115;28;20362;-78
2021/12/16 05:46:54;;;;;;;;;;;7.90;99.90;;;;;;5012830;28;19925;-81
2021/12/16 05:49:20;;;;;;;;;;;8.00;99.90;;;;;;5013021;28;20305;-80
2021/12/16 05:51:48;;;;;;;;;;;8.10;99.90;;;;;;4995154;28;20490;-78
2021/12/16 05:54:14;;;;;;;;;;;8.30;99.90;;;;;;4995176;28;19922;-78
2021/12/16 05:56:40;;;;;;;;;;;8.50;99.90;;;;;;4995329;28;19991;-78
2021/12/16 05:59:07;;;;;;;;;;;8.30;99.90;;;;;;4994795;28;19935;-78
2021/12/16 06:01:34;;;;;;;;;;;9.30;99.90;;;;;;5013021;28;19925;-78
2021/12/16 06:04:00;;;;;;;;;;;9.00;99.90;;;;;;4995407;28;20032;-79
2021/12/16 06:06:27;;;;;;;;;;;8.40;99.90;;;;;;5011855;28;20011;-78
2021/12/16 06:08:53;;;;;;;;;;;9.60;99.90;;;;;;5012718;28;19933;-78
2021/12/16 06:11:22;;;;;;;;;;;9.70;99.90;;;;;;5011785;28;20068;-78
2021/12/16 06:14:42;;;;;;;;;;;8.40;99.90;;;;;;4995324;28;19929;-78
2021/12/16 06:27:48;;;;;;;;;;;9.30;99.90;;;;;;5012819;28;19971;-78
2021/12/16 06:30:16;;;;;;;;;;;9.50;99.90;;;;;;5012216;28;19979;-78
2021/12/16 06:32:42;;;;;;;;;;;9.80;99.90;;;;;;5012823;28;19934;-78
2021/12/16 06:35:09;;;;;;;;;;;8.60;99.90;;;;;;5011946;28;20402;-78
2021/12/16 06:37:35;;;;;;;;;;;8.60;99.90;;;;;;5012157;28;20397;-78
2021/12/16 06:40:01;;;;;;;;;;;9.00;99.90;;;;;;4978067;28;20012;-78
2021/12/16 06:42:28;;;;;;;;;;;11.20;99.90;;;;;;5012818;28;19956;-78
2021/12/16 06:45:04;;;;;;;;;;;8.70;99.90;;;;;;5012541;28;20040;-78
2021/12/16 06:47:38;;;;;;;;;;;11.70;99.90;;;;;;5012500;28;19925;-77
2021/12/16 06:50:04;;;;;;;;;;;8.70;99.90;;;;;;5011737;28;19984;-77
2021/12/16 06:52:37;;;;;;;;;;;8.70;99.90;;;;;;5012175;28;19925;-78
2021/12/16 06:55:13;;;;;;;;;;;10.10;99.90;;;;;;4994698;28;19979;-78
2021/12/16 06:57:51;;;;;;;;;;;9.20;99.90;;;;;;5012639;28;20417;-78
2021/12/16 07:00:29;;;;;;;;;;;9.40;99.90;;;;;;4979677;28;19936;-78
2021/12/16 07:03:04;;;;;;;;;;;8.70;99.90;;;;;;5011991;28;19932;-78
2021/12/16 07:05:34;;;;;;;;;;;9.00;99.90;;;;;;5011885;28;19933;-78
2021/12/16 07:08:00;;;;;;;;;;;8.50;99.90;;;;;;5012212;28;20370;-80
2021/12/16 07:10:26;;;;;;;;;;;9.70;99.90;;;;;;4994144;28;19976;-79
2021/12/16 07:12:54;;;;;;;;;;;11.20;99.90;;;;;;5011890;28;19965;-78
2021/12/16 07:15:23;;;;;;;;;;;9.30;99.90;;;;;;5010320;28;19932;-78
2021/12/16 07:17:49;;;;;;;;;;;8.70;99.90;;;;;;5012120;28;19995;-78
2021/12/16 07:20:16;;;;;;;;;;;8.30;99.90;;;;;;5010959;28;19925;-78
2021/12/16 07:22:41;;;;;;;;;;;8.90;99.90;;;;;;5011843;28;19948;-78
2021/12/16 07:25:07;;;;;;;;;;;9.20;99.90;;;;;;5010276;28;20370;-78
2021/12/16 07:27:35;;;;;;;;;;;8.20;99.90;;;;;;4994288;28;19933;-78
2021/12/16 07:30:02;;;;;;;;;;;10.20;99.90;;;;;;4994147;28;20016;-78
2021/12/16 07:32:28;;;;;;;;;;;8.20;99.90;;;;;;5011727;28;19929;-78
2021/12/16 07:34:53;;;;;;;;;;;10.00;99.90;;;;;;5011503;28;20373;-78
2021/12/16 07:37:19;;;;;;;;;;;11.50;99.90;;;;;;4977326;28;19926;-78
2021/12/16 07:39:46;;;;;;;;;;;8.20;99.90;;;;;;5011395;28;19926;-80
2021/12/16 07:42:14;;;;;;;;;;;9.20;99.90;;;;;;5011267;28;20358;-78
2021/12/16 07:44:40;;;;;;;;;;;8.10;99.90;;;;;;4977121;28;19926;-78
2021/12/16 07:47:10;;;;;;;;;;;7.90;99.90;;;;;;5014690;28;19925;-80
2021/12/16 07:49:39;;;;;;;;;;;8.00;99.90;;;;;;5015146;28;19926;-78
2021/12/16 07:52:06;;;;;;;;;;;9.90;99.90;;;;;;4997833;28;19926;-78
2021/12/16 07:54:32;;;;;;;;;;;8.00;99.90;;;;;;5015511;28;20294;-78
2021/12/16 07:56:59;;;;;;;;;;;11.10;99.90;;;;;;5015780;28;19926;-78
2021/12/16 07:59:25;;;;;;;;;;;11.40;99.90;;;;;;4997879;28;20266;-78
2021/12/16 08:01:51;;;;;;;;;;;8.00;99.90;;;;;;5014874;28;19972;-78
2021/12/16 08:04:20;;;;;;;;;;;8.90;99.90;;;;;;4997054;28;19933;-78
2021/12/16 08:06:48;;;;;;;;;;;8.50;99.90;;;;;;5013560;28;19926;-78
2021/12/16 08:09:13;;;;;;;;;;;8.10;99.90;;;;;;5014102;28;19925;-78
2021/12/16 08:11:40;;;;;;;;;;;9.80;99.90;;;;;;5014839;28;19925;-78
2021/12/16 08:14:06;;;;;;;;;;;8.90;99.90;;;;;;5014906;28;19948;-78
2021/12/16 08:16:32;;;;;;;;;;;8.20;99.90;;;;;;4997180;28;19990;-78
2021/12/16 08:18:58;;;;;;;;;;;9.50;99.90;;;;;;5014907;28;20028;-78
2021/12/16 08:21:28;;;;;;;;;;;11.10;99.90;;;;;;5014104;28;19972;-78
2021/12/16 08:23:54;;;;;;;;;;;8.40;99.90;;;;;;5014832;28;19925;-78
2021/12/16 08:26:20;;;;;;;;;;;10.00;99.90;;;;;;5014533;28;19925;-78
2021/12/16 08:28:46;;;;;;;;;;;8.40;99.90;;;;;;4997234;28;19929;-78
2021/12/16 08:31:12;;;;;;;;;;;11.30;99.90;;;;;;4979985;28;19936;-78
2021/12/16 08:33:39;;;;;;;;;;;8.50;99.90;;;;;;5014762;28;20333;-77
2021/12/16 08:36:04;;;;;;;;;;;9.60;99.90;;;;;;4996980;28;20412;-78
2021/12/16 08:38:31;;;;;;;;;;;8.50;99.90;;;;;;5014340;28;19921;-78
2021/12/16 08:41:01;;;;;;;;;;;8.50;99.90;;;;;;5014133;28;19929;-78
2021/12/16 08:43:27;;;;;;;;;;;8.50;99.90;;;;;;5014199;28;19951;-78
2021/12/16 08:45:54;;;;;;;;;;;11.70;99.90;;;;;;5014561;28;20334;-77
2021/12/16 08:48:19;;;;;;;;;;;11.00;99.90;;;;;;5014143;28;20288;-77
2021/12/16 08:50:46;;;;;;;;;;;8.90;99.90;;;;;;5013945;28;19926;-80
2021/12/16 08:53:13;;;;;;;;;;;9.00;99.90;;;;;;5013633;28;20313;-79
2021/12/16 08:55:40;;;;;;;;;;;12.10;99.90;;;;;;4996829;28;20319;-78
2021/12/16 08:58:05;;;;;;;;;;;9.10;99.90;;;;;;5014374;28;19925;-78
2021/12/16 09:00:33;;;;;;;;;;;9.10;99.90;;;;;;5013785;28;20496;-77
2021/12/16 09:02:59;;;;;;;;;;;9.50;99.90;;;;;;5014261;28;20421;-78
2021/12/16 09:05:25;;;;;;;;;;;9.50;99.90;;;;;;5013437;28;19926;-78
2021/12/16 09:07:51;;;;;;;;;;;9.20;99.90;;;;;;5014036;28;19968;-77
2021/12/16 09:10:21;;;;;;;;;;;9.20;99.90;;;;;;5013344;28;20295;-78
2021/12/16 09:12:52;;;;;;;;;;;9.20;99.90;;;;;;5014164;28;20024;-77
2021/12/16 09:15:19;;;;;;;;;;;9.80;99.90;;;;;;5013539;28;19929;-78
2021/12/16 09:17:44;;;;;;;;;;;9.30;99.90;;;;;;5014075;28;19926;-77
2021/12/16 09:20:10;;;;;;;;;;;9.30;99.90;;;;;;4995857;28;20433;-77
2021/12/16 09:22:36;;;;;;;;;;;9.30;99.90;;;;;;4996077;28;19925;-78
2021/12/16 09:25:03;;;;;;;;;;;10.70;99.90;;;;;;5013456;28;20004;-78
2021/12/16 09:27:28;;;;;;;;;;;9.40;99.90;;;;;;5013573;28;19925;-77
2021/12/16 09:29:55;;;;;;;;;;;9.50;99.90;;;;;;5013536;28;20432;-78
2021/12/16 09:32:23;;;;;;;;;;;11.50;99.90;;;;;;5013251;28;19925;-78
2021/12/16 09:34:49;;;;;;;;;;;9.50;99.90;;;;;;4995848;28;19980;-80
2021/12/16 09:37:14;;;;;;;;;;;9.50;99.90;;;;;;4995710;28;20338;-81
2021/12/16 09:39:40;;;;;;;;;;;9.60;99.90;;;;;;4995513;28;20393;-78
2021/12/16 09:42:07;;;;;;;;;;;12.50;99.90;;;;;;5013361;28;20012;-78
2021/12/16 09:44:33;;;;;;;;;;;9.60;99.90;;;;;;5013135;28;19932;-78
2021/12/16 09:47:00;;;;;;;;;;;9.60;99.90;;;;;;5013331;28;20020;-78
2021/12/16 09:49:26;;;;;;;;;;;10.10;99.90;;;;;;5012847;28;20030;-78
2021/12/16 09:51:53;;;;;;;;;;;11.20;99.90;;;;;;4994889;28;20402;-78
2021/12/16 09:54:21;;;;;;;;;;;9.70;99.90;;;;;;5012928;28;19972;-78
2021/12/16 09:56:47;;;;;;;;;;;9.60;99.90;;;;;;5013270;28;20128;-78
2021/12/16 09:59:14;;;;;;;;;;;9.80;99.90;;;;;;5013040;28;20416;-77
2021/12/16 10:01:41;;;;;;;;;;;10.00;99.90;;;;;;4995085;28;19925;-78
2021/12/16 10:04:08;;;;;;;;;;;9.90;99.90;;;;;;4995562;28;19926;-78
2021/12/16 10:06:36;;;;;;;;;;;10.30;99.90;;;;;;4993356;28;19976;-78
2021/12/16 10:09:04;;;;;;;;;;;10.60;99.90;;;;;;5012868;28;19988;-78
2021/12/16 10:11:31;;;;;;;;;;;10.00;99.90;;;;;;5012219;28;19929;-78
2021/12/16 10:14:16;;;;;;;;;;;11.00;99.90;;;;;;5012636;28;19929;-78
2021/12/16 10:19:31;;;;;;;;;;;10.20;99.90;;;;;;5012406;28;19925;-78
2021/12/16 10:22:15;;;;;;;;;;;10.20;99.90;;;;;;5012569;28;19929;-78
2021/12/16 10:24:41;;;;;;;;;;;10.30;99.90;;;;;;5012249;28;19977;-78
2021/12/16 10:27:12;;;;;;;;;;;10.20;99.90;;;;;;4994971;28;20100;-78
2021/12/16 10:29:48;;;;;;;;;;;10.30;99.90;;;;;;5011792;28;19933;-78
2021/12/16 10:32:31;;;;;;;;;;;11.10;99.90;;;;;;4995076;28;19933;-78
2021/12/16 10:34:58;;;;;;;;;;;10.30;99.90;;;;;;5012071;28;19936;-78
2021/12/16 10:37:30;;;;;;;;;;;11.20;99.90;;;;;;5012178;28;20019;-78
2021/12/16 10:40:16;;;;;;;;;;;10.40;99.90;;;;;;4994708;28;19932;-78
2021/12/16 10:42:45;;;;;;;;;;;9.90;99.90;;;;;;4994182;28;19922;-78
2021/12/16 10:45:24;;;;;;;;;;;10.40;99.90;;;;;;5012240;28;19925;-78
2021/12/16 10:48:06;;;;;;;;;;;10.40;99.90;;;;;;4994656;28;19972;-78
2021/12/16 10:50:46;;;;;;;;;;;10.40;99.90;;;;;;5011256;28;20124;-78
2021/12/16 10:53:11;;;;;;;;;;;10.40;99.90;;;;;;4995044;28;19921;-77
2021/12/16 10:55:54;;;;;;;;;;;11.30;99.90;;;;;;5010858;28;20372;-78
2021/12/16 10:58:19;;;;;;;;;;;10.40;99.90;;;;;;4994986;28;19928;-79
2021/12/16 11:00:45;;;;;;;;;;;10.40;99.90;;;;;;5011807;28;19921;-78
2021/12/16 11:03:30;;;;;;;;;;;10.40;99.90;;;;;;4994840;28;20218;-78
2021/12/16 11:05:56;;;;;;;;;;;10.40;99.90;;;;;;5012041;28;19964;-78
2021/12/16 11:08:22;;;;;;;;;;;12.10;99.90;;;;;;4994517;28;20338;-78
2021/12/16 11:10:47;;;;;;;;;;;11.20;99.90;;;;;;5011511;28;19925;-78
2021/12/16 11:13:14;;;;;;;;;;;13.10;99.90;;;;;;4994321;28;19925;-78
2021/12/16 11:15:40;;;;;;;;;;;10.50;99.90;;;;;;5011566;28;19925;-78
2021/12/16 11:18:06;;;;;;;;;;;10.40;99.90;;;;;;4994053;28;20362;-79
2021/12/16 11:20:31;;;;;;;;;;;10.30;99.90;;;;;;5010423;28;19926;-78
2021/12/16 11:23:09;;;;;;;;;;;10.50;99.90;;;;;;4994100;28;19940;-78
2021/12/16 11:25:45;;;;;;;;;;;10.40;99.90;;;;;;5010755;28;20305;-78
2021/12/16 11:28:31;;;;;;;;;;;10.40;99.90;;;;;;4994441;28;20286;-78
2021/12/16 11:31:02;;;;;;;;;;;10.40;99.90;;;;;;5011913;28;19929;-78
2021/12/16 11:33:27;;;;;;;;;;;10.50;99.90;;;;;;5010231;28;19929;-81
2021/12/16 11:35:55;;;;;;;;;;;10.60;99.90;;;;;;5010966;28;20394;-78
2021/12/16 11:38:44;;;;;;;;;;;10.60;99.90;;;;;;5011802;28;19934;-78
2021/12/16 11:41:12;;;;;;;;;;;10.50;99.90;;;;;;5010528;28;19932;-78
2021/12/16 11:43:43;;;;;;;;;;;10.80;99.90;;;;;;5010475;28;19929;-78
2021/12/16 11:46:29;;;;;;;;;;;10.60;99.90;;;;;;5010239;28;19929;-78
2021/12/16 11:48:57;;;;;;;;;;;12.10;99.90;;;;;;5010002;28;19937;-78
2021/12/16 11:51:26;;;;;;;;;;;10.90;99.90;;;;;;4992675;28;19931;-79
2021/12/16 11:53:54;;;;;;;;;;;10.50;99.90;;;;;;4992993;28;19925;-78
2021/12/16 11:56:31;;;;;;;;;;;12.20;99.90;;;;;;4992983;28;19926;-79
2021/12/16 11:58:57;;;;;;;;;;;10.60;99.90;;;;;;5010900;28;19975;-78
2021/12/16 12:01:22;;;;;;;;;;;10.80;99.90;;;;;;4992945;28;19930;-78
2021/12/16 12:03:48;;;;;;;;;;;10.70;99.90;;;;;;5010288;28;19988;-79
2021/12/16 12:06:18;;;;;;;;;;;10.70;99.90;;;;;;4992816;28;20387;-78
2021/12/16 12:08:45;;;;;;;;;;;10.70;99.90;;;;;;5009102;28;20436;-78
2021/12/16 12:11:16;;;;;;;;;;;11.00;99.90;;;;;;4992130;28;20298;-78
2021/12/16 12:13:44;;;;;;;;;;;10.70;99.90;;;;;;4992831;28;19925;-78
2021/12/16 12:16:12;;;;;;;;;;;10.70;99.90;;;;;;5009172;28;20409;-79
2021/12/16 12:18:55;;;;;;;;;;;10.80;99.90;;;;;;5010128;28;19929;-79
2021/12/16 12:21:39;;;;;;;;;;;10.80;99.90;;;;;;5010359;28;19979;-78
2021/12/16 12:24:04;;;;;;;;;;;10.90;99.90;;;;;;4992873;28;19965;-78
2021/12/16 12:26:31;;;;;;;;;;;11.30;99.90;;;;;;5010249;28;19983;-81
2021/12/16 12:29:02;;;;;;;;;;;10.80;99.90;;;;;;5010228;28;19960;-79
2021/12/16 12:31:29;;;;;;;;;;;10.70;99.90;;;;;;5012613;28;19933;-78
2021/12/16 12:33:55;;;;;;;;;;;10.80;99.90;;;;;;5013522;28;19971;-78
2021/12/16 12:36:22;;;;;;;;;;;13.40;99.90;;;;;;4995634;28;20008;-78
2021/12/16 12:38:48;;;;;;;;;;;10.70;99.90;;;;;;4995274;28;20448;-78
2021/12/16 12:41:14;;;;;;;;;;;10.70;99.90;;;;;;4933077;28;1817283;-78
2021/12/16 12:43:40;;;;;;;;;;;10.90;99.90;;;;;;5014169;28;19965;-78
2021/12/16 12:46:06;;;;;;;;;;;10.70;99.90;;;;;;4997113;28;19995;-78
2021/12/16 12:48:34;;;;;;;;;;;11.60;99.90;;;;;;5014486;28;19925;-82
2021/12/16 12:51:00;;;;;;;;;;;11.00;99.90;;;;;;4996371;28;19937;-79
2021/12/16 12:53:33;;;;;;;;;;;10.70;99.90;;;;;;4997066;28;19948;-79
2021/12/16 12:56:09;;;;;;;;;;;10.80;99.90;;;;;;5014127;28;19925;-78
2021/12/16 12:58:46;;;;;;;;;;;10.80;99.90;;;;;;4980634;28;19997;-81
2021/12/16 13:01:12;;;;;;;;;;;10.80;99.90;;;;;;4996701;28;19926;-78
2021/12/16 13:03:39;;;;;;;;;;;10.70;99.90;;;;;;4996200;28;19929;-79
2021/12/16 13:06:12;;;;;;;;;;;10.70;99.90;;;;;;4996312;28;19933;-79
2021/12/16 13:08:48;;;;;;;;;;;10.70;99.90;;;;;;5013680;28;19925;-79
2021/12/16 13:11:18;;;;;;;;;;;10.70;99.90;;;;;;5013581;28;20331;-79
2021/12/16 13:14:04;;;;;;;;;;;10.70;99.90;;;;;;4996217;28;19933;-79
2021/12/16 13:28:19;;;;;;;;;;;10.70;99.90;;;;;;4936997;29;19930;-79
2021/12/16 13:30:58;;;;;;;;;;;11.80;99.90;;;;;;4972570;28;19926;-78
2021/12/16 13:33:35;;;;;;;;;;;10.70;99.90;;;;;;4996410;28;20235;-79
2021/12/16 13:36:04;;;;;;;;;;;10.80;99.90;;;;;;4995496;28;19925;-79
2021/12/16 13:38:38;;;;;;;;;;;11.00;99.90;;;;;;4996474;28;20024;-78
2021/12/16 13:41:08;;;;;;;;;;;10.80;99.90;;;;;;4994982;28;20369;-79
2021/12/16 13:43:34;;;;;;;;;;;10.80;99.90;;;;;;5013302;28;20012;-79
2021/12/16 13:58:09;;;;;;;;;;;10.80;99.90;;;;;;5013149;28;20416;-79
2021/12/16 14:03:19;;;;;;;;;;;10.70;99.90;;;;;;5013000;28;20342;-78
2021/12/16 14:06:28;;;;;;;;;;;10.90;99.90;;;;;;5012716;28;19921;-78
2021/12/16 14:08:47;;;;;;;;;;;9.80;99.90;;;;;;4989687;28;19972;-78
2021/12/16 14:14:40;;;;;;;;;;;10.60;99.90;;;;;;4995940;28;19928;-78
2021/12/16 14:17:15;;;;;;;;;;;11.80;99.90;;;;;;5013477;28;19921;-78
2021/12/16 14:46:58;;;;;;;;;;;10.50;99.90;;;;;;4994860;28;20029;-78
2021/12/16 14:49:28;;;;;;;;;;;10.50;99.90;;;;;;5012349;28;19933;-78
2021/12/16 14:51:57;;;;;;;;;;;10.50;99.90;;;;;;5011494;28;19926;-78
2021/12/16 14:54:24;;;;;;;;;;;8.10;99.90;;;;;;4978603;28;19926;-78
2021/12/16 14:56:49;;;;;;;;;;;12.50;99.90;;;;;;5010550;28;19965;-78
2021/12/16 14:59:18;;;;;;;;;;;10.50;99.90;;;;;;5012088;28;19976;-78
2021/12/16 15:01:48;;;;;;;;;;;10.40;99.90;;;;;;5012438;28;19931;-78
2021/12/16 15:04:17;;;;;;;;;;;12.70;99.90;;;;;;5011885;28;20408;-80
2021/12/16 15:06:49;;;;;;;;;;;12.60;99.90;;;;;;4994057;28;19976;-78
2021/12/16 15:09:26;;;;;;;;;;;10.40;99.90;;;;;;5012153;28;19933;-78
2021/12/16 15:12:02;;;;;;;;;;;10.40;99.90;;;;;;5011548;28;19925;-80
2021/12/16 15:17:12;;;;;;;;;;;11.90;99.90;;;;;;5011526;28;19925;-79
2021/12/16 15:44:51;;;;;;;;;;;10.40;99.90;;;;;;4991661;28;19926;-78
2021/12/16 15:47:18;;;;;;;;;;;10.40;99.90;;;;;;4974548;28;19934;-78
2021/12/16 15:49:44;;;;;;;;;;;10.30;99.90;;;;;;4991484;28;19949;-77
2021/12/16 15:52:09;;;;;;;;;;;13.00;99.90;;;;;;4991118;28;20253;-78
2021/12/16 15:54:35;;;;;;;;;;;10.40;99.90;;;;;;4957637;28;20421;-78
2021/12/16 15:57:02;;;;;;;;;;;10.70;99.90;;;;;;4974092;28;19933;-79
2021/12/16 15:59:29;;;;;;;;;;;10.40;99.90;;;;;;4990347;28;19983;-78
2021/12/16 16:01:55;;;;;;;;;;;10.30;99.90;;;;;;4990991;28;20424;-78
2021/12/16 16:04:20;;;;;;;;;;;11.00;99.90;;;;;;4991395;28;20088;-78
2021/12/16 16:06:49;;;;;;;;;;;10.40;99.90;;;;;;4977258;28;20416;-78
2021/12/16 16:09:15;;;;;;;;;;;11.90;99.90;;;;;;4994194;28;20008;-78
2021/12/16 16:11:44;;;;;;;;;;;11.90;99.90;;;;;;4994971;28;19980;-78
2021/12/16 16:14:11;;;;;;;;;;;10.30;99.90;;;;;;4995119;28;20082;-77
2021/12/16 16:16:44;;;;;;;;;;;11.00;99.90;;;;;;4993628;28;20381;-77
2021/12/16 16:19:10;;;;;;;;;;;10.30;99.90;;;;;;4995201;28;19929;-79
2021/12/16 16:21:40;;;;;;;;;;;10.30;99.90;;;;;;4976923;28;20016;-78
2021/12/16 16:24:08;;;;;;;;;;;10.30;99.90;;;;;;4993484;28;19942;-78
2021/12/16 16:26:34;;;;;;;;;;;10.70;99.90;;;;;;4995161;28;19925;-78
2021/12/16 16:29:02;;;;;;;;;;;10.40;99.90;;;;;;4994727;28;19972;-79
2021/12/16 16:31:28;;;;;;;;;;;10.30;99.90;;;;;;4994546;28;19936;-78
2021/12/16 16:33:55;;;;;;;;;;;10.10;99.90;;;;;;4976627;28;20374;-81
2021/12/16 16:36:22;;;;;;;;;;;10.40;99.90;;;;;;4977484;28;19926;-79
2021/12/16 16:38:52;;;;;;;;;;;10.40;99.90;;;;;;4994696;28;19937;-78
2021/12/16 16:41:19;;;;;;;;;;;10.40;99.90;;;;;;5007351;28;19929;-79
2021/12/16 16:43:47;;;;;;;;;;;10.30;99.90;;;;;;4996949;28;19980;-78
2021/12/16 16:46:17;;;;;;;;;;;10.40;99.90;;;;;;5014022;28;20009;-81
2021/12/16 16:51:29;;;;;;;;;;;10.30;99.90;;;;;;4996194;28;20027;-79
2021/12/16 16:54:01;;;;;;;;;;;12.10;99.90;;;;;;4995265;28;19925;-81
2021/12/16 16:56:47;;;;;;;;;;;10.40;99.90;;;;;;5015424;28;19926;-77
2021/12/16 16:59:15;;;;;;;;;;;10.40;99.90;;;;;;5000239;28;19993;-78
2021/12/16 17:01:40;;;;;;;;;;;11.90;99.90;;;;;;5013746;28;19933;-79
2021/12/16 17:04:08;;;;;;;;;;;11.70;99.90;;;;;;5013360;28;19926;-79
2021/12/16 17:06:34;;;;;;;;;;;10.30;99.90;;;;;;5012640;28;19950;-79
2021/12/16 17:09:01;;;;;;;;;;;10.40;99.90;;;;;;4979488;28;20383;-80
2021/12/16 17:11:28;;;;;;;;;;;10.40;99.90;;;;;;5012351;28;19933;-80
2021/12/16 17:14:09;;;;;;;;;;;10.80;99.90;;;;;;4996617;28;20247;-81
2021/12/16 17:19:33;;;;;;;;;;;10.60;99.90;;;;;;4996253;28;19995;-79
2021/12/16 17:21:59;;;;;;;;;;;10.90;99.90;;;;;;4995219;28;19925;-79
2021/12/16 17:24:27;;;;;;;;;;;11.80;99.90;;;;;;4996044;28;19932;-80
2021/12/16 17:26:55;;;;;;;;;;;10.40;99.90;;;;;;5013434;28;19937;-78
2021/12/16 17:29:20;;;;;;;;;;;10.40;99.90;;;;;;4995882;28;19987;-78
2021/12/16 17:31:52;;;;;;;;;;;10.30;99.90;;;;;;4996000;28;19925;-80
2021/12/16 17:34:21;;;;;;;;;;;10.30;99.90;;;;;;4995262;28;20240;-79
2021/12/16 17:37:10;;;;;;;;;;;10.50;99.90;;;;;;4995328;28;20005;-79
2021/12/16 17:39:41;;;;;;;;;;;10.50;99.90;;;;;;5002246;28;19949;-79
2021/12/16 17:42:29;;;;;;;;;;;10.40;99.90;;;;;;4979287;28;19926;-79
2021/12/16 17:44:57;;;;;;;;;;;10.40;99.90;;;;;;4979273;28;19948;-79
2021/12/16 17:47:26;;;;;;;;;;;10.50;99.90;;;;;;5012983;28;20063;-79
2021/12/16 17:49:52;;;;;;;;;;;10.50;99.90;;;;;;5012915;28;19926;-79
2021/12/16 17:52:19;;;;;;;;;;;10.50;99.90;;;;;;5012737;28;19961;-80
2021/12/16 17:54:46;;;;;;;;;;;10.50;99.90;;;;;;5013143;28;19925;-79
2021/12/16 17:57:20;;;;;;;;;;;10.50;99.90;;;;;;4978842;28;20022;-79
2021/12/16 17:59:46;;;;;;;;;;;10.50;99.90;;;;;;4995307;28;20390;-80
2021/12/16 18:02:16;;;;;;;;;;;11.50;99.90;;;;;;4994008;28;19933;-80
2021/12/16 18:04:44;;;;;;;;;;;10.60;99.90;;;;;;5012445;28;19926;-79
2021/12/16 18:07:10;;;;;;;;;;;10.50;99.90;;;;;;5009765;28;20293;-79
2021/12/16 18:09:37;;;;;;;;;;;10.40;99.90;;;;;;5011665;28;20033;-79
2021/12/16 18:12:06;;;;;;;;;;;12.90;99.90;;;;;;5010207;28;19925;-80
2021/12/16 18:14:43;;;;;;;;;;;10.50;99.90;;;;;;4994297;28;19929;-79
2021/12/16 18:17:12;;;;;;;;;;;10.50;99.90;;;;;;5012706;28;19925;-78
2021/12/16 18:19:39;;;;;;;;;;;11.20;99.90;;;;;;5012889;28;19929;-79
2021/12/16 18:22:12;;;;;;;;;;;10.60;99.90;;;;;;4994382;28;19925;-79
2021/12/16 18:24:39;;;;;;;;;;;10.70;99.90;;;;;;5012983;28;19936;-79
2021/12/16 18:27:27;;;;;;;;;;;10.60;99.90;;;;;;5012722;28;20297;-78
2021/12/16 18:29:56;;;;;;;;;;;10.60;99.90;;;;;;5012776;28;19980;-79
2021/12/16 18:32:29;;;;;;;;;;;12.80;99.90;;;;;;5009893;28;19929;-79
2021/12/16 18:34:55;;;;;;;;;;;10.50;99.90;;;;;;5011586;28;19925;-79